createdAt,value
2022-10-18T00:01:38.335Z,18.04
2022-10-18T00:04:07.534Z,18.05
2022-10-18T00:06:36.812Z,18.04
2022-10-18T00:09:06.466Z,18.03
2022-10-18T00:11:34.154Z,18.02
2022-10-18T00:14:01.834Z,17.99
2022-10-18T00:16:29.586Z,17.93
2022-10-18T00:18:57.405Z,17.86
2022-10-18T00:21:26.555Z,17.85
2022-10-18T00:23:55.092Z,17.81
2022-10-18T00:26:25.242Z,17.84
2022-10-18T00:28:55.229Z,17.88
2022-10-18T00:31:25.086Z,17.89
2022-10-18T00:33:54.519Z,17.88
2022-10-18T00:36:22.704Z,17.76
2022-10-18T00:38:52.396Z,17.78
2022-10-18T00:41:23.691Z,17.80
2022-10-18T00:43:53.961Z,17.83
2022-10-18T00:46:22.256Z,17.79
2022-10-18T00:48:50.918Z,17.80
2022-10-18T00:51:21.274Z,17.85
2022-10-18T00:53:49.828Z,17.86
2022-10-18T00:56:19.129Z,17.80
2022-10-18T00:58:48.689Z,17.80
2022-10-18T01:01:16.384Z,17.76
2022-10-18T01:03:44.313Z,17.79
2022-10-18T01:06:11.939Z,17.77
2022-10-18T01:08:56.658Z,17.74
2022-10-18T01:11:51.259Z,17.77
2022-10-18T01:14:28.174Z,17.80
2022-10-18T01:17:01.082Z,17.76
2022-10-18T01:20:08.297Z,17.73
2022-10-18T01:22:40.357Z,17.76
2022-10-18T01:25:21.007Z,17.75
2022-10-18T01:27:58.078Z,17.74
2022-10-18T01:30:38.934Z,17.75
2022-10-18T01:33:14.243Z,17.75
2022-10-18T01:35:48.561Z,17.74
2022-10-18T01:38:19.661Z,17.74
2022-10-18T01:40:51.311Z,17.75
2022-10-18T01:43:20.978Z,17.75
2022-10-18T01:45:50.765Z,17.77
2022-10-18T01:48:18.744Z,17.71
2022-10-18T01:50:46.416Z,17.70
2022-10-18T01:53:24.673Z,17.67
2022-10-18T01:56:00.874Z,17.71
2022-10-18T01:58:32.478Z,17.74
2022-10-18T02:01:08.454Z,17.76
2022-10-18T02:03:44.152Z,17.75
2022-10-18T02:06:19.684Z,17.73
2022-10-18T02:08:54.644Z,17.73
2022-10-18T02:11:22.862Z,17.74
2022-10-18T02:13:54.340Z,17.76
2022-10-18T02:16:27.779Z,17.73
2022-10-18T02:19:01.514Z,17.69
2022-10-18T02:21:30.646Z,17.68
2022-10-18T02:24:00.120Z,17.67
2022-10-18T02:26:27.789Z,17.68
2022-10-18T02:28:56.172Z,17.69
2022-10-18T02:31:30.119Z,17.68
2022-10-18T02:34:01.676Z,17.67
2022-10-18T02:36:34.457Z,17.66
2022-10-18T02:39:06.043Z,17.65
2022-10-18T02:41:34.073Z,17.64
2022-10-18T02:44:01.725Z,17.64
2022-10-18T02:46:30.782Z,17.63
2022-10-18T02:48:58.530Z,17.64
2022-10-18T02:51:26.232Z,17.61
2022-10-18T02:53:54.062Z,17.58
2022-10-18T02:56:21.681Z,17.57
2022-10-18T02:58:49.353Z,17.59
2022-10-18T03:01:17.055Z,17.60
2022-10-18T03:03:46.127Z,17.58
2022-10-18T03:06:13.766Z,17.58
2022-10-18T03:08:41.424Z,17.55
2022-10-18T03:11:09.147Z,17.53
2022-10-18T03:13:36.836Z,17.52
2022-10-18T03:16:04.644Z,17.49
2022-10-18T03:18:32.264Z,17.52
2022-10-18T03:21:05.049Z,17.47
2022-10-18T03:23:32.858Z,17.43
2022-10-18T03:26:00.494Z,17.31
2022-10-18T03:28:28.280Z,17.36
2022-10-18T03:31:01.184Z,17.39
2022-10-18T03:33:28.909Z,17.41
2022-10-18T03:35:56.540Z,17.41
2022-10-18T03:38:25.650Z,17.40
2022-10-18T03:40:53.308Z,17.41
2022-10-18T03:43:20.998Z,17.41
2022-10-18T03:45:48.889Z,17.42
2022-10-18T03:48:16.636Z,17.42
2022-10-18T03:50:44.791Z,17.41
2022-10-18T03:53:12.454Z,17.31
2022-10-18T03:55:41.461Z,17.26
2022-10-18T03:58:09.297Z,17.24
2022-10-18T04:00:37.261Z,17.27
2022-10-18T04:03:04.991Z,17.27
2022-10-18T04:05:32.621Z,17.27
2022-10-18T04:08:00.271Z,17.28
2022-10-18T04:10:27.907Z,17.29
2022-10-18T04:12:56.850Z,17.29
2022-10-18T04:15:24.496Z,17.29
2022-10-18T04:17:52.112Z,17.25
2022-10-18T04:20:19.968Z,17.25
2022-10-18T04:22:49.189Z,17.23
2022-10-18T04:25:17.164Z,17.20
2022-10-18T04:27:45.138Z,17.21
2022-10-18T04:30:14.810Z,17.19
2022-10-18T04:32:42.641Z,17.17
2022-10-18T04:35:11.119Z,17.16
2022-10-18T04:37:38.779Z,17.18
2022-10-18T04:40:07.652Z,17.14
2022-10-18T04:42:35.326Z,17.15
2022-10-18T04:45:02.999Z,17.19
2022-10-18T04:47:32.272Z,17.22
2022-10-18T04:50:00.157Z,17.21
2022-10-18T04:52:27.918Z,17.21
2022-10-18T04:54:55.622Z,17.20
2022-10-18T04:57:23.390Z,17.21
2022-10-18T04:59:51.019Z,17.19
2022-10-18T05:02:18.665Z,17.22
2022-10-18T05:04:47.688Z,17.22
2022-10-18T05:07:15.265Z,17.18
2022-10-18T05:09:43.027Z,17.13
2022-10-18T05:12:10.861Z,17.13
2022-10-18T05:14:38.542Z,17.13
2022-10-18T05:17:06.219Z,17.16
2022-10-18T05:19:33.907Z,17.13
2022-10-18T05:22:02.897Z,17.10
2022-10-18T05:24:30.576Z,17.11
2022-10-18T05:26:58.451Z,17.13
2022-10-18T05:31:59.008Z,17.21
2022-10-18T05:34:27.317Z,17.25
2022-10-18T05:36:55.110Z,17.30
2022-10-18T05:39:24.455Z,17.36
2022-10-18T05:41:52.179Z,17.37
2022-10-18T05:44:20.074Z,17.33
2022-10-18T05:46:47.733Z,17.26
2022-10-18T05:49:15.874Z,17.20
2022-10-18T05:51:43.596Z,17.17
2022-10-18T05:54:12.691Z,17.19
2022-10-18T05:56:41.798Z,17.20
2022-10-18T05:59:12.260Z,17.19
2022-10-18T06:01:42.019Z,17.19
2022-10-18T06:04:11.093Z,17.18
2022-10-18T06:06:39.730Z,17.12
2022-10-18T06:09:08.661Z,17.08
2022-10-18T06:11:37.671Z,17.03
2022-10-18T06:14:08.749Z,17.02
2022-10-18T06:19:05.259Z,17.01
2022-10-18T06:21:32.940Z,16.99
2022-10-18T06:24:00.796Z,16.98
2022-10-18T06:26:29.058Z,16.99
2022-10-18T06:28:56.834Z,16.98
2022-10-18T06:31:25.969Z,16.99
2022-10-18T06:33:53.767Z,17.01
2022-10-18T06:36:23.079Z,16.98
2022-10-18T06:38:51.640Z,16.99
2022-10-18T06:41:20.398Z,16.98
2022-10-18T06:43:49.520Z,16.95
2022-10-18T06:46:17.598Z,16.95
2022-10-18T06:48:46.856Z,16.93
2022-10-18T06:51:15.212Z,16.93
2022-10-18T06:53:53.418Z,16.93
2022-10-18T06:56:31.187Z,16.92
2022-10-18T07:01:31.742Z,16.92
2022-10-18T07:04:00.792Z,16.92
2022-10-18T07:06:28.618Z,16.93
2022-10-18T07:08:56.985Z,16.95
2022-10-18T07:11:26.769Z,16.96
2022-10-18T07:14:00.285Z,16.95
2022-10-18T07:16:28.131Z,16.95
2022-10-18T07:18:56.291Z,16.97
2022-10-18T07:21:27.189Z,16.95
2022-10-18T07:23:55.141Z,16.94
2022-10-18T07:26:25.162Z,16.99
2022-10-18T07:28:55.878Z,17.02
2022-10-18T07:31:23.745Z,17.04
2022-10-18T07:33:51.535Z,17.07
2022-10-18T07:36:21.055Z,17.09
2022-10-18T07:38:51.820Z,17.13
2022-10-18T07:41:20.191Z,17.17
2022-10-18T07:43:50.694Z,17.20
2022-10-18T07:46:19.964Z,17.23
2022-10-18T07:48:48.332Z,17.18
2022-10-18T07:51:16.683Z,17.18
2022-10-18T07:53:44.360Z,17.20
2022-10-18T07:56:16.838Z,17.18
2022-10-18T07:58:45.084Z,17.17
2022-10-18T08:01:13.305Z,17.24
2022-10-18T08:03:42.858Z,17.34
2022-10-18T08:06:12.753Z,17.35
2022-10-18T08:08:41.759Z,17.41
2022-10-18T08:11:12.146Z,17.44
2022-10-18T08:13:41.302Z,17.45
2022-10-18T08:16:11.156Z,17.47
2022-10-18T08:18:39.512Z,17.48
2022-10-18T08:21:09.487Z,17.48
2022-10-18T08:23:37.721Z,17.54
2022-10-18T08:26:08.276Z,17.61
2022-10-18T08:28:36.806Z,17.67
2022-10-18T08:31:07.801Z,17.67
2022-10-18T08:33:36.199Z,17.68
2022-10-18T08:36:05.944Z,17.58
2022-10-18T08:38:34.932Z,17.45
2022-10-18T08:41:15.822Z,17.37
2022-10-18T08:43:49.968Z,17.29
2022-10-18T08:46:19.102Z,17.26
2022-10-18T08:48:49.481Z,17.30
2022-10-18T08:51:28.047Z,17.33
2022-10-18T08:54:04.764Z,17.31
2022-10-18T08:56:34.923Z,17.22
2022-10-18T08:59:04.400Z,17.25
2022-10-18T09:01:43.095Z,17.28
2022-10-18T09:04:25.291Z,17.32
2022-10-18T09:07:07.050Z,17.30
2022-10-18T09:09:43.633Z,17.33
2022-10-18T09:12:27.866Z,17.33
2022-10-18T09:15:13.662Z,17.31
2022-10-18T09:17:55.082Z,17.30
2022-10-18T09:20:25.355Z,17.22
2022-10-18T09:22:55.858Z,17.27
2022-10-18T09:25:25.944Z,17.28
2022-10-18T09:28:02.336Z,17.36
2022-10-18T09:30:44.637Z,17.34
2022-10-18T09:33:29.733Z,17.33
2022-10-18T09:35:59.811Z,17.35
2022-10-18T09:38:32.825Z,17.28
2022-10-18T09:41:05.413Z,17.26
2022-10-18T09:43:55.486Z,17.31
2022-10-18T09:46:27.672Z,17.35
2022-10-18T09:49:01.259Z,17.37
2022-10-18T09:51:34.650Z,17.36
2022-10-18T09:54:21.476Z,17.40
2022-10-18T09:56:52.030Z,17.39
2022-10-18T09:59:32.628Z,17.41
2022-10-18T10:02:00.789Z,17.40
2022-10-18T10:04:29.993Z,17.38
2022-10-18T10:07:01.148Z,17.42
2022-10-18T10:09:30.777Z,17.49
2022-10-18T10:11:59.352Z,17.50
2022-10-18T10:14:28.687Z,17.56
2022-10-18T10:16:58.485Z,17.56
2022-10-18T10:19:32.696Z,17.57
2022-10-18T10:22:05.046Z,17.49
2022-10-18T10:24:44.052Z,17.55
2022-10-18T10:27:19.202Z,17.64
2022-10-18T10:30:01.521Z,17.69
2022-10-18T10:32:45.142Z,17.74
2022-10-18T10:35:33.985Z,17.73
2022-10-18T10:38:24.882Z,17.74
2022-10-18T10:40:53.125Z,17.75
2022-10-18T10:43:36.986Z,17.71
2022-10-18T10:46:09.552Z,17.76
2022-10-18T10:48:46.346Z,17.85
2022-10-18T10:51:18.155Z,17.94
2022-10-18T10:53:52.141Z,18.00
2022-10-18T10:56:25.373Z,18.01
2022-10-18T10:58:54.746Z,18.02
2022-10-18T11:01:27.993Z,18.01
2022-10-18T11:03:57.757Z,17.79
2022-10-18T11:06:48.888Z,17.73
2022-10-18T11:09:27.604Z,17.68
2022-10-18T11:12:05.068Z,17.65
2022-10-18T11:14:38.399Z,17.69
2022-10-18T11:17:16.441Z,17.64
2022-10-18T11:19:55.866Z,17.69
2022-10-18T11:22:27.344Z,17.65
2022-10-18T11:24:55.138Z,17.71
2022-10-18T11:27:28.439Z,17.76
2022-10-18T11:30:15.680Z,17.72
2022-10-18T11:32:50.547Z,17.61
2022-10-18T11:35:32.604Z,17.67
2022-10-18T11:38:15.096Z,17.67
2022-10-18T11:40:55.619Z,17.64
2022-10-18T11:43:38.998Z,17.73
2022-10-18T11:46:23.914Z,17.84
2022-10-18T11:49:06.819Z,17.96
2022-10-18T11:52:06.723Z,18.14
2022-10-18T11:54:48.292Z,18.32
2022-10-18T11:57:33.640Z,18.46
2022-10-18T12:00:17.394Z,18.45
2022-10-18T12:03:02.102Z,18.36
2022-10-18T12:05:31.250Z,18.57
2022-10-18T12:08:04.085Z,18.69
2022-10-18T12:10:46.163Z,18.86
2022-10-18T12:13:28.904Z,19.02
2022-10-18T12:15:56.832Z,19.19
2022-10-18T12:18:26.754Z,19.35
2022-10-18T12:20:56.557Z,19.38
2022-10-18T12:23:37.403Z,19.38
2022-10-18T12:26:08.413Z,19.27
2022-10-18T12:28:46.909Z,19.27
2022-10-18T12:31:23.410Z,19.36
2022-10-18T12:33:55.481Z,19.44
2022-10-18T12:36:49.090Z,19.56
2022-10-18T12:39:32.306Z,19.72
2022-10-18T12:42:20.785Z,19.74
2022-10-18T12:44:48.874Z,19.88
2022-10-18T12:47:24.509Z,20.04
2022-10-18T12:50:00.502Z,20.12
2022-10-18T12:52:31.844Z,20.21
2022-10-18T12:55:28.109Z,20.19
2022-10-18T12:58:22.619Z,20.19
2022-10-18T13:01:05.744Z,20.16
2022-10-18T13:03:44.055Z,20.11
2022-10-18T13:06:11.777Z,20.07
2022-10-18T13:08:45.779Z,19.96
2022-10-18T13:11:31.018Z,19.75
2022-10-18T13:14:25.037Z,19.62
2022-10-18T13:16:59.485Z,19.54
2022-10-18T13:19:36.955Z,19.46
2022-10-18T13:22:24.662Z,19.40
2022-10-18T13:25:03.522Z,19.25
2022-10-18T13:27:39.303Z,19.18
2022-10-18T13:30:23.931Z,19.01
2022-10-18T13:32:59.740Z,18.95
2022-10-18T13:35:48.815Z,18.92
2022-10-18T13:38:40.765Z,18.93
2022-10-18T13:41:10.934Z,18.84
2022-10-18T13:44:10.311Z,18.81
2022-10-18T13:47:20.490Z,18.77
2022-10-18T13:50:25.762Z,18.73
2022-10-18T13:53:28.699Z,18.66
2022-10-18T13:59:15.874Z,18.54
2022-10-18T14:01:58.701Z,18.51
2022-10-18T14:04:48.196Z,18.43
2022-10-18T14:07:19.533Z,18.41
2022-10-18T14:09:54.979Z,18.41
2022-10-18T14:12:30.097Z,18.37
2022-10-18T14:15:06.254Z,18.33
2022-10-18T14:17:40.803Z,18.29
2022-10-18T14:20:19.700Z,18.24
2022-10-18T14:22:52.385Z,18.25
2022-10-18T14:25:27.464Z,18.26
2022-10-18T14:28:10.025Z,18.24
2022-10-18T14:30:53.121Z,18.19
2022-10-18T14:33:35.329Z,18.11
2022-10-18T14:36:10.425Z,18.08
2022-10-18T14:38:49.758Z,18.04
2022-10-18T14:41:21.367Z,18.00
2022-10-18T14:43:49.840Z,18.00
2022-10-18T14:46:21.968Z,18.01
2022-10-18T14:48:56.946Z,18.00
2022-10-18T14:51:25.877Z,17.97
2022-10-18T14:53:55.818Z,17.89
2022-10-18T14:56:27.361Z,17.82
2022-10-18T14:58:56.569Z,17.80
2022-10-18T15:01:28.032Z,17.81
2022-10-18T15:04:01.546Z,17.75
2022-10-18T15:06:29.295Z,17.72
2022-10-18T15:08:59.909Z,17.68
2022-10-18T15:11:28.383Z,17.64
2022-10-18T15:13:58.707Z,17.67
2022-10-18T15:16:29.288Z,17.67
2022-10-18T15:19:01.638Z,17.61
2022-10-18T15:24:24.447Z,17.47
2022-10-18T15:26:53.594Z,17.43
2022-10-18T15:29:24.746Z,17.41
2022-10-18T15:31:53.513Z,17.36
2022-10-18T15:34:24.388Z,17.36
2022-10-18T15:36:53.943Z,17.38
2022-10-18T15:39:24.886Z,17.29
2022-10-18T15:41:53.725Z,17.19
2022-10-18T15:44:26.800Z,17.21
2022-10-18T15:46:57.197Z,17.15
2022-10-18T15:50:01.516Z,17.12
2022-10-18T15:52:50.147Z,17.08
2022-10-18T15:55:47.466Z,17.08
2022-10-18T15:58:20.645Z,17.05
2022-10-18T16:00:49.824Z,17.02
2022-10-18T16:03:19.653Z,17.02
2022-10-18T16:05:47.715Z,16.96
2022-10-18T16:08:23.900Z,16.92
2022-10-18T16:10:53.370Z,16.89
2022-10-18T16:13:21.424Z,16.88
2022-10-18T16:15:49.931Z,16.85
2022-10-18T16:18:21.173Z,16.86
2022-10-18T16:20:49.604Z,16.89
2022-10-18T16:23:27.293Z,16.88
2022-10-18T16:25:57.633Z,16.89
2022-10-18T16:28:31.755Z,16.82
2022-10-18T16:31:08.448Z,16.80
2022-10-18T16:33:44.830Z,16.77
2022-10-18T16:36:17.778Z,16.70
2022-10-18T16:42:06.880Z,16.63
2022-10-18T16:44:48.235Z,16.62
2022-10-18T16:47:33.081Z,16.60
2022-10-18T16:50:28.418Z,16.59
2022-10-18T16:53:30.160Z,16.56
2022-10-18T16:56:09.960Z,16.55
2022-10-18T16:59:12.488Z,16.53
2022-10-18T17:02:12.237Z,16.49
2022-10-18T17:04:55.940Z,16.52
2022-10-18T17:11:02.965Z,16.43
2022-10-18T17:13:31.376Z,16.42
2022-10-18T17:16:07.229Z,16.41
2022-10-18T17:18:35.552Z,16.41
2022-10-18T17:21:05.659Z,16.36
2022-10-18T17:23:35.213Z,16.36
2022-10-18T17:26:21.914Z,16.36
2022-10-18T17:28:51.897Z,16.36
2022-10-18T17:31:24.344Z,16.36
2022-10-18T17:33:54.477Z,16.31
2022-10-18T17:36:23.237Z,16.30
2022-10-18T17:38:51.695Z,16.31
2022-10-18T17:41:20.202Z,16.32
2022-10-18T17:43:51.566Z,16.29
2022-10-18T17:46:20.434Z,16.38
2022-10-18T17:48:57.485Z,16.46
2022-10-18T17:51:26.496Z,16.44
2022-10-18T17:53:55.164Z,16.45
2022-10-18T17:56:41.205Z,16.46
2022-10-18T17:59:12.548Z,16.45
2022-10-18T18:01:40.724Z,16.46
2022-10-18T18:04:11.180Z,16.46
2022-10-18T18:06:39.555Z,16.39
2022-10-18T18:09:08.961Z,16.26
2022-10-18T18:11:38.440Z,16.20
2022-10-18T18:14:09.066Z,16.10
2022-10-18T18:16:38.380Z,16.10
2022-10-18T18:19:09.848Z,16.01
2022-10-18T18:21:41.967Z,16.01
2022-10-18T18:24:10.763Z,15.95
2022-10-18T18:26:40.615Z,15.93
2022-10-18T18:29:14.516Z,15.91
2022-10-18T18:31:43.748Z,15.91
2022-10-18T18:34:12.231Z,15.92
2022-10-18T18:36:41.673Z,15.88
2022-10-18T18:39:19.572Z,15.83
2022-10-18T18:41:48.936Z,15.80
2022-10-18T18:44:16.843Z,15.81
2022-10-18T18:46:44.618Z,15.76
2022-10-18T18:49:13.170Z,15.72
2022-10-18T18:51:44.640Z,15.58
2022-10-18T18:54:14.646Z,15.55
2022-10-18T18:56:43.179Z,15.59
2022-10-18T18:59:13.864Z,15.63
2022-10-18T19:01:42.152Z,15.51
2022-10-18T19:04:10.644Z,15.42
2022-10-18T19:06:40.864Z,15.41
2022-10-18T19:09:19.148Z,15.46
2022-10-18T19:11:52.248Z,15.42
2022-10-18T19:14:23.531Z,15.44
2022-10-18T19:16:53.335Z,15.37
2022-10-18T19:19:23.209Z,15.27
2022-10-18T19:21:58.086Z,15.23
2022-10-18T19:24:30.078Z,15.20
2022-10-18T19:27:00.337Z,15.08
2022-10-18T19:29:31.767Z,14.99
2022-10-18T19:32:01.363Z,14.97
2022-10-18T19:34:31.465Z,15.01
2022-10-18T19:37:02.308Z,15.05
2022-10-18T19:39:43.193Z,15.00
2022-10-18T19:42:18.598Z,15.06
2022-10-18T19:47:38.374Z,15.11
2022-10-18T19:50:21.126Z,15.04
2022-10-18T19:52:53.424Z,15.06
2022-10-18T19:55:33.906Z,15.09
2022-10-18T19:58:12.913Z,15.16
2022-10-18T20:00:53.880Z,15.11
2022-10-18T20:03:32.477Z,14.94
2022-10-18T20:09:30.706Z,14.94
2022-10-18T20:15:52.107Z,14.88
2022-10-18T20:18:20.905Z,14.91
2022-10-18T20:20:49.605Z,14.97
2022-10-18T20:23:18.423Z,15.11
2022-10-18T20:25:56.573Z,15.20
2022-10-18T20:28:25.152Z,15.29
2022-10-18T20:31:06.271Z,15.39
2022-10-18T20:33:35.051Z,15.38
2022-10-18T20:36:04.253Z,15.33
2022-10-18T20:38:33.106Z,15.29
2022-10-18T20:41:05.692Z,15.22
2022-10-18T20:43:33.445Z,15.14
2022-10-18T20:46:01.652Z,14.99
2022-10-18T20:48:31.963Z,14.89
2022-10-18T20:51:04.106Z,14.90
2022-10-18T20:53:31.804Z,14.89
2022-10-18T20:56:03.828Z,14.88
2022-10-18T20:58:31.596Z,14.85
2022-10-18T21:01:06.219Z,14.91
2022-10-18T21:03:37.739Z,14.93
2022-10-18T21:06:13.111Z,14.93
2022-10-18T21:08:40.982Z,14.93
2022-10-18T21:11:09.417Z,14.89
2022-10-18T21:13:37.346Z,14.89
2022-10-18T21:16:06.474Z,14.89
2022-10-18T21:18:37.523Z,14.89
2022-10-18T21:21:10.542Z,14.86
2022-10-18T21:23:38.625Z,14.89
2022-10-18T21:26:07.248Z,14.83
2022-10-18T21:28:35.589Z,14.81
2022-10-18T21:31:14.471Z,14.80
2022-10-18T21:33:44.227Z,14.72
2022-10-18T21:36:12.083Z,14.71
2022-10-18T21:38:40.266Z,14.74
2022-10-18T21:41:11.839Z,14.67
2022-10-18T21:43:41.293Z,14.63
2022-10-18T21:46:10.879Z,14.59
2022-10-18T21:48:39.615Z,14.52
2022-10-18T21:51:09.482Z,14.55
2022-10-18T21:53:37.971Z,14.60
2022-10-18T21:56:07.351Z,14.66
2022-10-18T21:58:35.782Z,14.63
2022-10-18T22:01:07.207Z,14.57
2022-10-18T22:03:34.962Z,14.58
2022-10-18T22:06:07.264Z,14.57
2022-10-18T22:08:36.290Z,14.49
2022-10-18T22:11:04.322Z,14.52
2022-10-18T22:13:32.019Z,14.55
2022-10-18T22:16:01.655Z,14.57
2022-10-18T22:18:30.177Z,14.46
2022-10-18T22:20:59.589Z,14.44
2022-10-18T22:23:32.067Z,14.44
2022-10-18T22:26:05.179Z,14.43
2022-10-18T22:28:32.929Z,14.40
2022-10-18T22:31:03.270Z,14.29
2022-10-18T22:33:30.949Z,14.35
2022-10-18T22:35:58.589Z,14.38
2022-10-18T22:38:26.266Z,14.34
2022-10-18T22:40:53.921Z,14.35
2022-10-18T22:43:22.892Z,14.35
2022-10-18T22:45:50.571Z,14.39
2022-10-18T22:48:18.208Z,14.43
2022-10-18T22:50:45.852Z,14.37
2022-10-18T22:53:13.450Z,14.39
2022-10-18T22:55:41.080Z,14.35
2022-10-18T22:58:08.780Z,14.34
2022-10-18T23:00:39.817Z,14.37
2022-10-18T23:03:07.419Z,14.35
2022-10-18T23:05:38.101Z,14.35
2022-10-18T23:08:05.952Z,14.35
2022-10-18T23:10:38.386Z,14.37
2022-10-18T23:13:06.580Z,14.38
2022-10-18T23:15:34.250Z,14.39
2022-10-18T23:18:03.274Z,14.36
2022-10-18T23:20:30.973Z,14.32
2022-10-18T23:22:58.648Z,14.32
2022-10-18T23:25:27.165Z,14.25
2022-10-18T23:27:54.929Z,14.24
2022-10-18T23:30:22.762Z,14.26
2022-10-18T23:32:50.419Z,14.27
2022-10-18T23:35:19.410Z,14.23
2022-10-18T23:37:47.087Z,14.10
2022-10-18T23:40:14.848Z,14.10
2022-10-18T23:42:42.547Z,14.11
2022-10-18T23:45:11.049Z,14.05
2022-10-18T23:47:38.747Z,14.05
2022-10-18T23:50:07.196Z,14.07
2022-10-18T23:52:36.236Z,14.12
2022-10-18T23:55:04.334Z,14.11
2022-10-18T23:57:32.228Z,13.98
